createdAt,value
2019-03-28T00:00:45.708Z,1.20
2019-03-28T00:03:11.959Z,1.07
2019-03-28T00:05:38.201Z,1.23
2019-03-28T00:08:04.434Z,0.90
2019-03-28T00:10:30.668Z,1.20
2019-03-28T00:12:56.911Z,1.10
2019-03-28T00:15:23.148Z,1.53
2019-03-28T00:17:49.374Z,1.37
2019-03-28T00:20:16.537Z,1.50
2019-03-28T00:23:03.505Z,1.10
2019-03-28T00:25:29.759Z,1.10
2019-03-28T00:27:55.988Z,1.30
2019-03-28T00:30:22.256Z,1.30
2019-03-28T00:32:48.516Z,1.13
2019-03-28T00:35:14.717Z,1.50
2019-03-28T00:37:40.959Z,1.27
2019-03-28T00:43:07.910Z,1.03
2019-03-28T00:45:34.135Z,1.00
2019-03-28T00:48:00.417Z,0.90
2019-03-28T00:50:28.504Z,1.13
2019-03-28T00:52:54.745Z,1.10
2019-03-28T00:55:20.976Z,1.00
2019-03-28T00:57:47.219Z,0.80
2019-03-28T01:03:27.291Z,1.07
2019-03-28T01:05:53.526Z,1.67
2019-03-28T01:08:19.763Z,1.00
2019-03-28T01:10:46.008Z,1.50
2019-03-28T01:13:12.247Z,1.37
2019-03-28T01:15:38.473Z,1.30
2019-03-28T01:18:04.708Z,1.30
2019-03-28T01:20:30.932Z,1.23
2019-03-28T01:22:57.163Z,1.13
2019-03-28T01:25:23.387Z,1.43
2019-03-28T01:27:50.260Z,1.63
2019-03-28T01:30:17.760Z,1.20
2019-03-28T01:32:44.012Z,1.03
2019-03-28T01:35:10.244Z,0.90
2019-03-28T01:37:36.492Z,1.23
2019-03-28T01:40:44.028Z,0.90
2019-03-28T01:43:10.285Z,1.30
2019-03-28T01:45:36.503Z,1.20
2019-03-28T01:48:02.746Z,1.47
2019-03-28T01:50:28.973Z,1.70
2019-03-28T01:52:55.208Z,1.23
2019-03-28T01:55:21.434Z,1.43
2019-03-28T01:57:47.662Z,1.50
2019-03-28T02:00:14.093Z,1.20
2019-03-28T02:02:40.445Z,1.23
2019-03-28T02:08:14.147Z,1.20
2019-03-28T02:10:40.386Z,1.17
2019-03-28T02:13:06.622Z,0.93
2019-03-28T02:15:32.851Z,1.13
2019-03-28T02:17:59.088Z,1.00
2019-03-28T02:20:25.344Z,1.60
2019-03-28T02:22:51.552Z,1.00
2019-03-28T02:25:17.806Z,1.27
2019-03-28T02:27:44.016Z,1.40
2019-03-28T02:33:03.955Z,1.07
2019-03-28T02:35:30.198Z,1.07
2019-03-28T02:37:56.527Z,1.30
2019-03-28T02:40:22.777Z,1.30
2019-03-28T02:42:49.000Z,1.20
2019-03-28T02:45:15.250Z,1.30
2019-03-28T02:47:41.475Z,1.07
2019-03-28T02:50:07.721Z,1.40
2019-03-28T02:52:33.939Z,1.30
2019-03-28T02:55:00.534Z,1.07
2019-03-28T02:57:40.882Z,1.13
2019-03-28T02:59:56.442Z,1.40
2019-03-28T03:02:22.670Z,1.17
2019-03-28T03:04:48.951Z,1.90
2019-03-28T03:07:15.210Z,1.80
2019-03-28T03:09:41.405Z,1.07
2019-03-28T03:12:07.656Z,1.60
2019-03-28T03:14:33.898Z,0.90
2019-03-28T03:17:00.140Z,1.13
2019-03-28T03:19:26.378Z,1.33
2019-03-28T03:21:52.615Z,1.10
2019-03-28T03:24:18.860Z,1.40
2019-03-28T03:26:45.087Z,1.10
2019-03-28T03:29:11.312Z,1.10
2019-03-28T03:31:37.550Z,1.10
2019-03-28T03:34:05.115Z,1.07
2019-03-28T03:36:31.936Z,0.80
2019-03-28T03:38:58.155Z,1.20
2019-03-28T03:41:24.400Z,1.17
2019-03-28T03:43:50.640Z,0.97
2019-03-28T03:46:16.879Z,1.20
2019-03-28T03:48:43.110Z,0.93
2019-03-28T03:51:09.347Z,1.20
2019-03-28T03:53:35.576Z,1.57
2019-03-28T03:56:01.832Z,1.17
2019-03-28T03:58:28.054Z,1.50
2019-03-28T04:00:54.424Z,1.00
2019-03-28T04:03:20.730Z,1.20
2019-03-28T04:05:46.987Z,1.00
2019-03-28T04:08:13.248Z,0.97
2019-03-28T04:10:39.472Z,1.13
2019-03-28T04:13:05.721Z,0.80
2019-03-28T04:15:31.988Z,1.17
2019-03-28T04:17:58.241Z,1.10
2019-03-28T04:20:25.040Z,1.43
2019-03-28T04:22:52.621Z,1.37
2019-03-28T04:25:18.853Z,1.20
2019-03-28T04:27:45.107Z,1.53
2019-03-28T04:30:11.330Z,1.17
2019-03-28T04:38:04.594Z,1.30
2019-03-28T04:40:30.923Z,1.10
2019-03-28T04:42:57.232Z,1.93
2019-03-28T04:45:23.533Z,1.30
2019-03-28T04:47:49.816Z,0.80
2019-03-28T04:50:16.043Z,1.23
2019-03-28T04:52:42.292Z,1.00
2019-03-28T04:55:49.824Z,1.03
2019-03-28T04:58:16.061Z,1.17
2019-03-28T05:00:42.289Z,0.97
2019-03-28T05:03:08.532Z,0.93
2019-03-28T05:05:34.785Z,1.10
2019-03-28T05:08:01.033Z,0.83
2019-03-28T05:10:27.272Z,1.40
2019-03-28T05:12:53.515Z,1.13
2019-03-28T05:18:01.589Z,0.90
2019-03-28T05:20:27.826Z,1.10
2019-03-28T05:22:54.057Z,1.63
2019-03-28T05:27:54.345Z,1.00
2019-03-28T05:30:20.588Z,1.10
2019-03-28T05:32:46.819Z,1.13
2019-03-28T05:35:13.074Z,1.30
2019-03-28T05:37:39.325Z,1.10
2019-03-28T05:40:46.874Z,1.33
2019-03-28T05:43:13.099Z,1.13
2019-03-28T05:45:39.344Z,0.77
2019-03-28T05:48:05.570Z,0.60
2019-03-28T05:50:31.804Z,0.90
2019-03-28T05:52:58.033Z,0.97
2019-03-28T05:55:24.279Z,0.73
2019-03-28T05:57:50.548Z,0.87
2019-03-28T06:00:16.816Z,1.20
2019-03-28T06:05:30.761Z,0.57
2019-03-28T06:07:57.003Z,0.57
2019-03-28T06:10:43.002Z,0.70
2019-03-28T06:13:09.163Z,0.70
2019-03-28T06:15:35.424Z,0.87
2019-03-28T06:18:01.661Z,0.43
2019-03-28T06:20:27.939Z,0.80
2019-03-28T06:22:54.172Z,0.50
2019-03-28T06:25:20.450Z,0.33
2019-03-28T06:27:46.690Z,0.87
2019-03-28T06:30:12.934Z,0.57
2019-03-28T06:32:43.313Z,0.50
2019-03-28T06:35:48.641Z,0.83
2019-03-28T06:38:14.863Z,0.50
2019-03-28T06:40:41.107Z,0.57
2019-03-28T06:43:07.345Z,0.67
2019-03-28T06:45:33.580Z,0.60
2019-03-28T06:47:59.813Z,0.63
2019-03-28T06:50:26.074Z,0.73
2019-03-28T06:52:52.303Z,0.60
2019-03-28T06:55:18.553Z,0.80
2019-03-28T06:57:44.796Z,0.60
2019-03-28T07:03:11.299Z,0.50
2019-03-28T07:05:37.560Z,0.70
2019-03-28T07:08:03.810Z,0.93
2019-03-28T07:10:30.050Z,0.67
2019-03-28T07:12:56.293Z,0.80
2019-03-28T07:15:22.523Z,1.10
2019-03-28T07:17:48.761Z,0.90
2019-03-28T07:20:14.991Z,0.70
2019-03-28T07:22:41.236Z,0.70
2019-03-28T07:25:07.577Z,0.60
2019-03-28T07:28:15.108Z,0.70
2019-03-28T07:30:41.344Z,0.90
2019-03-28T07:33:07.602Z,0.73
2019-03-28T07:35:33.836Z,0.80
2019-03-28T07:38:00.064Z,0.83
2019-03-28T07:40:26.288Z,0.60
2019-03-28T07:42:52.545Z,0.70
2019-03-28T07:45:18.782Z,0.70
2019-03-28T07:47:45.038Z,0.70
2019-03-28T07:50:11.674Z,0.50
2019-03-28T07:52:39.511Z,0.80
2019-03-28T07:58:13.122Z,1.57
2019-03-28T08:00:39.334Z,0.83
2019-03-28T08:03:05.566Z,0.70
2019-03-28T08:05:31.796Z,0.70
2019-03-28T08:10:43.856Z,0.50
2019-03-28T08:13:10.107Z,0.90
2019-03-28T08:15:36.348Z,0.50
2019-03-28T08:18:02.608Z,0.50
2019-03-28T08:20:28.878Z,0.50
2019-03-28T08:22:55.084Z,0.80
2019-03-28T08:25:21.316Z,0.50
2019-03-28T08:27:47.559Z,0.50
2019-03-28T08:30:55.085Z,0.70
2019-03-28T08:33:21.448Z,0.53
2019-03-28T08:36:09.239Z,0.40
2019-03-28T08:39:16.792Z,0.60
2019-03-28T08:41:43.024Z,0.60
2019-03-28T08:44:09.294Z,0.20
2019-03-28T08:46:35.524Z,0.40
2019-03-28T08:49:01.764Z,0.30
2019-03-28T08:51:27.997Z,0.40
2019-03-28T08:53:54.239Z,0.30
2019-03-28T08:56:20.472Z,0.30
2019-03-28T08:58:46.700Z,0.40
2019-03-28T09:01:12.940Z,0.40
2019-03-28T09:03:39.173Z,0.30
2019-03-28T09:06:05.424Z,0.37
2019-03-28T09:08:31.652Z,0.97
2019-03-28T09:10:57.897Z,0.20
2019-03-28T09:13:24.128Z,0.27
2019-03-28T09:15:50.707Z,0.30
2019-03-28T09:18:17.312Z,0.43
2019-03-28T09:20:43.521Z,0.13
2019-03-28T09:23:09.782Z,0.20
2019-03-28T09:25:36.036Z,0.37
2019-03-28T09:28:02.289Z,0.50
2019-03-28T09:30:49.633Z,0.40
2019-03-28T09:33:16.518Z,0.40
2019-03-28T09:35:42.842Z,0.27
2019-03-28T09:38:10.938Z,0.57
2019-03-28T09:40:37.366Z,0.20
2019-03-28T09:43:03.611Z,0.17
2019-03-28T09:45:30.269Z,0.80
2019-03-28T09:47:58.003Z,0.40
2019-03-28T09:50:24.255Z,0.27
2019-03-28T09:52:50.504Z,0.30
2019-03-28T09:55:18.877Z,0.30
2019-03-28T09:57:44.905Z,0.30
2019-03-28T10:03:12.229Z,0.50
2019-03-28T10:05:38.517Z,0.60
2019-03-28T10:08:04.732Z,0.33
2019-03-28T10:10:30.968Z,0.50
2019-03-28T10:12:57.212Z,0.50
2019-03-28T10:15:23.454Z,0.40
2019-03-28T10:17:49.700Z,0.20
2019-03-28T10:20:15.928Z,0.37
2019-03-28T10:22:42.171Z,0.30
2019-03-28T10:25:49.704Z,0.40
2019-03-28T10:28:15.951Z,0.40
2019-03-28T10:33:56.035Z,0.30
2019-03-28T10:36:22.269Z,0.37
2019-03-28T10:38:48.526Z,0.50
2019-03-28T10:41:14.759Z,0.40
2019-03-28T10:43:41.001Z,0.50
2019-03-28T10:46:07.254Z,0.40
2019-03-28T10:48:33.504Z,0.40
2019-03-28T10:50:59.729Z,0.30
2019-03-28T10:53:25.974Z,0.40
2019-03-28T10:55:52.195Z,0.40
2019-03-28T10:58:19.553Z,0.60
2019-03-28T11:00:46.601Z,0.30
2019-03-28T11:03:12.836Z,0.30
2019-03-28T11:05:39.078Z,0.20
2019-03-28T11:08:05.325Z,0.20
2019-03-28T11:10:31.557Z,0.40
2019-03-28T11:12:57.808Z,0.30
2019-03-28T11:15:24.043Z,0.30
2019-03-28T11:17:50.267Z,0.40
2019-03-28T11:20:16.505Z,0.30
2019-03-28T11:22:42.736Z,0.20
2019-03-28T11:25:08.990Z,0.30
2019-03-28T11:27:35.221Z,0.40
2019-03-28T11:30:01.457Z,0.27
2019-03-28T11:32:27.689Z,0.60
2019-03-28T11:34:53.927Z,0.10
2019-03-28T11:37:26.322Z,0.10
2019-03-28T11:39:48.306Z,0.10
2019-03-28T11:42:14.532Z,0.07
2019-03-28T11:44:41.340Z,0.00
2019-03-28T11:47:09.043Z,0.00
2019-03-28T11:49:35.288Z,0.10
2019-03-28T11:52:01.508Z,0.10
2019-03-28T11:54:27.767Z,0.00
2019-03-28T11:56:54.011Z,0.20
2019-03-28T11:59:20.247Z,0.10
2019-03-28T12:01:59.084Z,0.03
2019-03-28T12:04:14.635Z,0.00
2019-03-28T12:06:40.863Z,0.00
2019-03-28T12:09:07.089Z,0.00
2019-03-28T12:11:33.336Z,0.10
2019-03-28T12:13:59.802Z,0.00
2019-03-28T12:16:27.714Z,0.00
2019-03-28T12:18:53.945Z,0.10
2019-03-28T12:21:20.206Z,0.10
2019-03-28T12:23:46.441Z,0.00
2019-03-28T12:26:12.683Z,0.00
2019-03-28T12:28:38.911Z,0.00
2019-03-28T12:31:05.154Z,0.03
2019-03-28T12:33:31.380Z,0.20
2019-03-28T12:35:57.632Z,0.00
2019-03-28T12:38:23.864Z,0.00
2019-03-28T12:41:31.411Z,0.00
2019-03-28T12:43:57.641Z,0.10
2019-03-28T12:46:25.684Z,0.03
2019-03-28T12:48:52.036Z,0.10
2019-03-28T12:51:18.286Z,0.00
2019-03-28T12:53:44.518Z,0.07
2019-03-28T12:56:10.759Z,0.10
2019-03-28T12:58:36.987Z,0.10
2019-03-28T13:01:03.239Z,0.10
2019-03-28T13:03:34.802Z,0.40
2019-03-28T13:05:57.625Z,0.80
2019-03-28T13:08:23.861Z,0.30
2019-03-28T13:10:50.092Z,0.33
2019-03-28T13:13:16.336Z,0.10
2019-03-28T13:15:42.564Z,0.07
2019-03-28T13:18:08.808Z,0.00
2019-03-28T13:20:35.049Z,0.20
2019-03-28T13:23:01.299Z,0.10
2019-03-28T13:25:27.543Z,0.00
2019-03-28T13:27:53.784Z,0.10
2019-03-28T13:30:20.013Z,0.00
2019-03-28T13:32:46.266Z,0.10
2019-03-28T13:35:12.595Z,0.20
2019-03-28T13:40:32.619Z,0.10
2019-03-28T13:42:58.867Z,0.17
2019-03-28T13:45:25.096Z,0.10
2019-03-28T13:47:54.191Z,0.10
2019-03-28T13:53:20.179Z,0.10
2019-03-28T13:55:46.416Z,0.10
2019-03-28T13:58:13.793Z,0.20
2019-03-28T14:00:40.811Z,0.00
2019-03-28T14:03:07.081Z,0.20
2019-03-28T14:05:33.311Z,0.10
2019-03-28T14:07:59.551Z,0.10
2019-03-28T14:10:25.805Z,0.20
2019-03-28T14:12:52.045Z,0.30
2019-03-28T14:15:18.284Z,0.20
2019-03-28T14:17:44.504Z,0.10
2019-03-28T14:23:04.286Z,0.37
2019-03-28T14:25:30.513Z,0.20
2019-03-28T14:27:56.744Z,0.17
2019-03-28T14:30:22.989Z,0.20
2019-03-28T14:32:53.635Z,0.10
2019-03-28T14:35:17.394Z,0.30
2019-03-28T14:37:43.629Z,0.30
2019-03-28T14:40:51.184Z,0.10
2019-03-28T14:43:17.424Z,0.13
2019-03-28T14:45:43.668Z,0.57
2019-03-28T14:48:09.899Z,0.10
2019-03-28T14:51:17.459Z,0.20
2019-03-28T14:53:43.709Z,0.20
2019-03-28T14:56:09.944Z,0.10
2019-03-28T14:59:17.505Z,0.10
2019-03-28T15:01:43.740Z,0.03
2019-03-28T15:04:09.984Z,0.30
2019-03-28T15:06:36.223Z,0.10
2019-03-28T15:09:43.783Z,0.20
2019-03-28T15:12:10.011Z,0.00
2019-03-28T15:14:36.258Z,0.10
2019-03-28T15:17:02.483Z,0.07
2019-03-28T15:19:28.718Z,0.20
2019-03-28T15:21:54.959Z,0.13
2019-03-28T15:24:21.185Z,0.10
2019-03-28T15:26:47.704Z,0.10
2019-03-28T15:29:15.559Z,0.10
2019-03-28T15:31:41.811Z,0.53
2019-03-28T15:34:08.062Z,0.10
2019-03-28T15:36:34.309Z,0.30
2019-03-28T15:39:00.529Z,0.20
2019-03-28T15:41:26.813Z,0.10
2019-03-28T15:43:53.034Z,0.30
2019-03-28T15:46:19.273Z,0.20
2019-03-28T15:48:45.499Z,0.20
2019-03-28T15:51:12.004Z,0.30
2019-03-28T15:53:39.865Z,0.10
2019-03-28T15:56:06.112Z,0.10
2019-03-28T15:58:32.339Z,0.30
2019-03-28T16:00:58.580Z,0.03
2019-03-28T16:03:24.810Z,0.10
2019-03-28T16:05:58.135Z,0.20
2019-03-28T16:08:19.191Z,0.60
2019-03-28T16:10:45.452Z,0.10
2019-03-28T16:13:11.692Z,0.10
2019-03-28T16:15:37.927Z,0.13
2019-03-28T16:18:04.190Z,0.20
2019-03-28T16:20:30.419Z,0.20
2019-03-28T16:22:56.813Z,0.10
2019-03-28T16:25:23.027Z,0.10
2019-03-28T16:27:49.283Z,0.10
2019-03-28T16:33:29.115Z,0.20
2019-03-28T16:35:55.344Z,0.17
2019-03-28T16:38:21.579Z,0.10
2019-03-28T16:40:47.806Z,0.40
2019-03-28T16:43:14.049Z,0.20
2019-03-28T16:45:40.271Z,0.50
2019-03-28T16:48:06.519Z,0.20
2019-03-28T16:50:32.766Z,0.13
2019-03-28T16:52:59.010Z,0.40
2019-03-28T16:55:26.563Z,0.50
2019-03-28T16:57:53.922Z,0.30
2019-03-28T17:03:35.511Z,0.20
2019-03-28T17:06:01.738Z,0.30
2019-03-28T17:09:09.690Z,0.37
2019-03-28T17:11:36.106Z,0.47
2019-03-28T17:14:02.336Z,0.30
2019-03-28T17:16:28.572Z,0.20
2019-03-28T17:18:54.823Z,0.17
2019-03-28T17:21:23.343Z,0.30
2019-03-28T17:23:49.204Z,0.30
2019-03-28T17:26:15.432Z,0.40
2019-03-28T17:31:35.738Z,0.30
2019-03-28T17:34:01.959Z,0.30
2019-03-28T17:36:28.202Z,0.30
2019-03-28T17:38:54.423Z,0.40
2019-03-28T17:41:20.671Z,0.40
2019-03-28T17:47:01.022Z,0.23
2019-03-28T17:49:27.292Z,0.47
2019-03-28T17:51:53.553Z,0.50
2019-03-28T17:54:19.783Z,0.40
2019-03-28T17:56:46.019Z,0.47
2019-03-28T17:59:12.263Z,0.30
2019-03-28T18:01:38.521Z,0.53
2019-03-28T18:04:04.749Z,0.40
2019-03-28T18:06:31.089Z,0.50
2019-03-28T18:08:57.331Z,0.50
2019-03-28T18:11:23.579Z,0.40
2019-03-28T18:13:49.821Z,0.43
2019-03-28T18:16:16.061Z,0.40
2019-03-28T18:18:42.305Z,0.47
2019-03-28T18:21:08.547Z,0.77
2019-03-28T18:23:34.766Z,0.93
2019-03-28T18:26:01.012Z,0.50
2019-03-28T18:28:27.238Z,0.80
2019-03-28T18:30:53.487Z,0.50
2019-03-28T18:33:19.725Z,0.67
2019-03-28T18:35:45.973Z,0.67
2019-03-28T18:38:12.198Z,0.63
2019-03-28T18:40:38.439Z,0.40
2019-03-28T18:43:04.659Z,0.47
2019-03-28T18:45:30.907Z,0.50
2019-03-28T18:47:57.232Z,0.47
2019-03-28T18:50:23.458Z,0.60
2019-03-28T18:52:49.702Z,0.50
2019-03-28T18:55:16.025Z,0.50
2019-03-28T18:57:42.269Z,0.40
2019-03-28T19:00:49.801Z,0.60
2019-03-28T19:03:16.037Z,0.63
2019-03-28T19:05:42.256Z,0.40
2019-03-28T19:08:08.503Z,0.50
2019-03-28T19:10:34.751Z,0.53
2019-03-28T19:13:04.370Z,0.40
2019-03-28T19:15:29.135Z,0.50
2019-03-28T19:17:55.381Z,0.67
2019-03-28T19:20:21.600Z,0.20
2019-03-28T19:22:50.231Z,0.20
2019-03-28T19:25:16.065Z,0.40
2019-03-28T19:27:42.314Z,0.30
2019-03-28T19:30:49.838Z,0.27
2019-03-28T19:33:16.092Z,0.40
2019-03-28T19:39:08.887Z,0.37
2019-03-28T19:41:35.303Z,0.40
2019-03-28T19:44:01.551Z,0.50
2019-03-28T19:46:27.778Z,0.50
2019-03-28T19:48:54.011Z,0.83
2019-03-28T19:51:20.239Z,0.40
2019-03-28T19:53:46.478Z,0.57
2019-03-28T19:56:12.697Z,0.50
2019-03-28T19:58:38.939Z,0.33
2019-03-28T20:01:05.275Z,0.43
2019-03-28T20:03:31.517Z,0.40
2019-03-28T20:05:57.760Z,0.30
2019-03-28T20:08:26.210Z,0.40
2019-03-28T20:10:52.140Z,0.50
2019-03-28T20:13:18.380Z,0.40
2019-03-28T20:15:44.666Z,0.27
2019-03-28T20:18:10.890Z,0.40
2019-03-28T20:20:37.128Z,0.30
2019-03-28T20:23:03.358Z,0.50
2019-03-28T20:25:29.592Z,0.30
2019-03-28T20:27:55.814Z,0.50
2019-03-28T20:30:22.346Z,0.40
2019-03-28T20:32:48.571Z,0.37
2019-03-28T20:35:14.904Z,0.40
2019-03-28T20:37:41.131Z,0.63
2019-03-28T20:43:01.373Z,0.37
2019-03-28T20:45:27.613Z,0.60
2019-03-28T20:47:53.839Z,0.50
2019-03-28T20:50:32.179Z,0.50
2019-03-28T20:52:58.422Z,0.30
2019-03-28T20:55:25.557Z,0.40
2019-03-28T20:57:52.793Z,0.70
2019-03-28T21:01:00.335Z,0.50
2019-03-28T21:03:26.563Z,0.53
2019-03-28T21:05:52.801Z,0.40
2019-03-28T21:08:19.023Z,0.50
2019-03-28T21:10:45.287Z,0.50
2019-03-28T21:13:11.520Z,0.47
2019-03-28T21:15:37.762Z,0.40
2019-03-28T21:18:03.991Z,0.17
2019-03-28T21:20:30.223Z,0.40
2019-03-28T21:22:56.446Z,0.40
2019-03-28T21:25:22.903Z,0.50
2019-03-28T21:27:50.811Z,0.47
2019-03-28T21:30:18.496Z,0.63
2019-03-28T21:32:55.218Z,0.20
2019-03-28T21:35:13.383Z,0.50
2019-03-28T21:37:39.608Z,0.30
2019-03-28T21:43:13.403Z,1.47
2019-03-28T21:45:40.221Z,0.30
2019-03-28T21:48:07.783Z,0.43
2019-03-28T21:50:34.044Z,0.37
2019-03-28T21:53:00.271Z,0.30
2019-03-28T21:55:26.503Z,0.50
2019-03-28T21:57:52.734Z,0.60
2019-03-28T22:03:26.324Z,0.30
2019-03-28T22:05:52.556Z,0.60
2019-03-28T22:08:18.791Z,0.40
2019-03-28T22:10:45.056Z,0.30
2019-03-28T22:13:12.330Z,0.50
2019-03-28T22:15:39.446Z,0.33
2019-03-28T22:18:05.683Z,0.40
2019-03-28T22:20:31.903Z,0.50
2019-03-28T22:22:58.151Z,0.60
2019-03-28T22:25:24.379Z,0.60
2019-03-28T22:27:50.811Z,0.63
2019-03-28T22:30:17.147Z,0.53
2019-03-28T22:32:43.381Z,0.70
2019-03-28T22:35:09.603Z,0.40
2019-03-28T22:37:35.867Z,0.30
2019-03-28T22:43:16.037Z,0.63
2019-03-28T22:45:42.274Z,0.40
2019-03-28T22:48:11.068Z,0.50
2019-03-28T22:50:36.642Z,0.50
2019-03-28T22:53:02.874Z,0.40
2019-03-28T22:55:29.111Z,0.37
2019-03-28T22:57:55.349Z,0.50
2019-03-28T23:03:09.498Z,0.63
2019-03-28T23:05:35.729Z,0.60
2019-03-28T23:08:01.980Z,0.57
2019-03-28T23:10:28.214Z,0.63
2019-03-28T23:12:54.456Z,0.60
2019-03-28T23:15:22.113Z,1.00
2019-03-28T23:17:48.827Z,0.87
2019-03-28T23:20:15.063Z,0.90
2019-03-28T23:22:41.289Z,0.50
2019-03-28T23:25:07.633Z,0.70
2019-03-28T23:27:33.853Z,0.60
2019-03-28T23:30:00.335Z,0.50
2019-03-28T23:32:28.226Z,0.73
2019-03-28T23:34:54.471Z,0.50
2019-03-28T23:37:24.970Z,0.40
2019-03-28T23:39:48.827Z,0.50
2019-03-28T23:42:17.741Z,0.60
2019-03-28T23:44:43.199Z,0.50
2019-03-28T23:50:09.739Z,0.30
2019-03-28T23:52:35.963Z,0.50
2019-03-28T23:55:44.841Z,0.33
2019-03-28T23:58:11.654Z,0.40
